Terminal Aerodrome Forecast
Issued by NWS

Current Version | Previous Version | Text Only | Print | Product List | Glossary On
Versions: 1 2 3 4 5 6 7 8 9 10 11 12 13 14 15 16 17 18 19 20 21 22 23 24
000
FTUS41 KPHI 250500
TAFMIV
TAF
KMIV 250520Z 2506/2606 22006KT P6SM OVC003 WS020/21050KT
     FM251100 27012G20KT P6SM -SHRA OVC012
     FM251400 28010G20KT P6SM SCT035
     FM252300 31005KT P6SM SKC=

USA.gov is the U.S. government's official web portal to all federal, state and local government web resources and services.